Dillon, CO (80435)

7:36 PM MDT on August 28, 2015 (GMT -0600)
Snowberry | | Change Station
CLOSE
Current Station
Personal Weather Station
Location: Dillon, CO
Elevation: 9190 ft
Nearby Weather Stations

Elev 9190 ft 39.59 °N, 106.00 °W | Updated 1 minute ago

Partly Cloudy
Partly Cloudy
61.8 °F
Feels Like 61.8 °F
N
0.0
Wind Variable Wind from SW
Gusts 3.0 mph

Today
High -- | Low -- °F
--% Chance of Precip.
Yesterday
High -- | Low -- °F
Precip. -- in
6:28 AM 7:41 PM
Waxing Gibbous, 99% visible
Pressure 30.09 in
Visibility 10.0 miles
Clouds Clear
Dew Point 35 °F
Humidity 37%
Rainfall 0.00 in
Snow Depth Not available.
UV 0 out of 12
Pollen 10.10 out of 12
Air Quality Not available.
Flu Activity Not available.
METAR KLXV 290053Z AUTO 33005KT 10SM CLR 17/M01 A3052 RMK AO2 SLP190 T01671006
Pressure 30.09 in
Visibility 10.0 miles
Clouds Clear
Dew Point 35 °F
Humidity 37%
Rainfall 0.00 in
Snow Depth Not available.
UV 0 out of 12
Pollen 10.10 out of 12
Air Quality Not available.
Flu Activity Not available.
METAR KLXV 290053Z AUTO 33005KT 10SM CLR 17/M01 A3052 RMK AO2 SLP190 T01671006
Nowcast | as of 7:14 PM MDT on August 28, 2015

Isolated light showers will diminish over the mountains and Front Range foothills by 8:30 PM. Isolated showers and thunderstorms will also continue to move south across the southern half of Park County through 9 PM. Rainfall rates will generally be less than one tenth of an inch per hour. Gusty winds to 40 mph and dangerous cloud lighting will also accompany the storms.

×

10-Day Weather Forecast

×

Almanac

Astronomy

Aug. 28, 2015 Rise Set
Actual Time
Civil Twilight
Nautical Twilight
Astronomical Twilight
Moon
Length of Visible Light
Length of Day
Tomorrow will be .
, % of the Moon is Illuminated

Today's Extremes

State Highs State Lows

Community

WunderPhotos

Upload Photos

1,850,566 photos uploaded!

WunderBlogs® & News

Nearby

Air Quality

  Air Quality AQ Index Pollutant
Not available.

Snow Depth

Station Depth Elevation

Earthquake Activity

City Distance Mag. Time & Date
Minimum magnitude displayed is 2.5.

Coastal Water Temperatures

Place Temperature

Stations

Nearby Weather Stations

Station Location Temp. Windchill Dew Point Humidity Wind Precip. Elev Updated Type